Terminal Aerodrome Forecast
Issued by NWS

Home | Current Version | Previous Version | Text Only | Print | Product List | Glossary On
Versions: 1 2 3 4 5 6 7 8 9 10 11 12 13 14
000
FTUS42 KTBW 291740
TAFLAL
TAF
KLAL 291740Z 2918/3018 28006KT P6SM VCTS SCT030CB BKN060
      TEMPO 2919/2922 2SM TSRA BKN025CB
     FM300100 VRB03KT P6SM FEW040 SCT250
     FM301600 27005KT P6SM SCT035 SCT250=

USA.gov is the U.S. government's official web portal to all federal, state and local government web resources and services.